sensor_id;sensor_type;location;lat;lon;timestamp;temperature;humidity
5683;DHT22;2864;49.220;8.654;2023-06-14T00:01:43;15.80;57.80
5683;DHT22;2864;49.220;8.654;2023-06-14T00:04:11;15.80;57.90
5683;DHT22;2864;49.220;8.654;2023-06-14T00:06:36;15.80;58.00
5683;DHT22;2864;49.220;8.654;2023-06-14T00:09:03;15.80;57.90
5683;DHT22;2864;49.220;8.654;2023-06-14T00:11:30;15.80;57.80
5683;DHT22;2864;49.220;8.654;2023-06-14T00:13:56;15.80;57.70
5683;DHT22;2864;49.220;8.654;2023-06-14T00:16:21;15.80;57.80
5683;DHT22;2864;49.220;8.654;2023-06-14T00:18:48;15.80;57.90
5683;DHT22;2864;49.220;8.654;2023-06-14T00:21:13;15.80;57.90
5683;DHT22;2864;49.220;8.654;2023-06-14T00:23:39;15.70;57.90
5683;DHT22;2864;49.220;8.654;2023-06-14T00:26:05;15.70;58.00
5683;DHT22;2864;49.220;8.654;2023-06-14T00:28:30;15.70;57.90
5683;DHT22;2864;49.220;8.654;2023-06-14T00:30:56;15.80;58.00
5683;DHT22;2864;49.220;8.654;2023-06-14T00:33:21;15.80;57.90
5683;DHT22;2864;49.220;8.654;2023-06-14T00:35:47;15.80;58.00
5683;DHT22;2864;49.220;8.654;2023-06-14T00:38:13;15.80;57.90
5683;DHT22;2864;49.220;8.654;2023-06-14T00:40:38;15.80;57.90
5683;DHT22;2864;49.220;8.654;2023-06-14T00:43:04;15.80;58.00
5683;DHT22;2864;49.220;8.654;2023-06-14T00:45:29;15.80;58.00
5683;DHT22;2864;49.220;8.654;2023-06-14T00:47:56;15.70;58.00
5683;DHT22;2864;49.220;8.654;2023-06-14T00:50:23;15.60;58.10
5683;DHT22;2864;49.220;8.654;2023-06-14T00:52:49;15.70;58.20
5683;DHT22;2864;49.220;8.654;2023-06-14T00:55:15;15.60;58.20
5683;DHT22;2864;49.220;8.654;2023-06-14T00:57:41;15.60;58.30
5683;DHT22;2864;49.220;8.654;2023-06-14T01:00:07;15.60;58.30
5683;DHT22;2864;49.220;8.654;2023-06-14T01:02:38;15.60;58.40
5683;DHT22;2864;49.220;8.654;2023-06-14T01:05:04;15.50;58.40
5683;DHT22;2864;49.220;8.654;2023-06-14T01:15:47;15.40;58.80
5683;DHT22;2864;49.220;8.654;2023-06-14T01:18:13;15.50;58.80
5683;DHT22;2864;49.220;8.654;2023-06-14T01:20:45;15.40;58.60
5683;DHT22;2864;49.220;8.654;2023-06-14T01:23:16;15.40;58.90
5683;DHT22;2864;49.220;8.654;2023-06-14T01:25:42;15.30;58.80
5683;DHT22;2864;49.220;8.654;2023-06-14T01:28:10;15.40;59.10
5683;DHT22;2864;49.220;8.654;2023-06-14T01:30:39;15.30;58.90
5683;DHT22;2864;49.220;8.654;2023-06-14T01:33:14;15.40;59.00
5683;DHT22;2864;49.220;8.654;2023-06-14T01:35:44;15.40;58.90
5683;DHT22;2864;49.220;8.654;2023-06-14T01:38:12;15.40;59.00
5683;DHT22;2864;49.220;8.654;2023-06-14T01:40:39;15.50;58.90
5683;DHT22;2864;49.220;8.654;2023-06-14T01:43:05;15.40;58.80
5683;DHT22;2864;49.220;8.654;2023-06-14T01:45:31;15.30;59.00
5683;DHT22;2864;49.220;8.654;2023-06-14T01:47:56;15.30;59.10
5683;DHT22;2864;49.220;8.654;2023-06-14T01:50:22;15.20;59.10
5683;DHT22;2864;49.220;8.654;2023-06-14T01:52:48;15.20;59.30
5683;DHT22;2864;49.220;8.654;2023-06-14T01:55:13;15.20;59.20
5683;DHT22;2864;49.220;8.654;2023-06-14T01:57:39;15.30;59.20
5683;DHT22;2864;49.220;8.654;2023-06-14T02:00:05;15.20;59.20
5683;DHT22;2864;49.220;8.654;2023-06-14T02:02:38;15.30;59.20
5683;DHT22;2864;49.220;8.654;2023-06-14T02:05:04;15.30;59.10
5683;DHT22;2864;49.220;8.654;2023-06-14T02:07:29;15.40;59.10
5683;DHT22;2864;49.220;8.654;2023-06-14T02:09:55;15.70;59.10
5683;DHT22;2864;49.220;8.654;2023-06-14T02:12:20;15.50;59.00
5683;DHT22;2864;49.220;8.654;2023-06-14T02:14:46;15.40;59.20
5683;DHT22;2864;49.220;8.654;2023-06-14T02:17:11;15.30;59.20
5683;DHT22;2864;49.220;8.654;2023-06-14T02:19:37;15.30;59.30
5683;DHT22;2864;49.220;8.654;2023-06-14T02:22:02;15.20;59.30
5683;DHT22;2864;49.220;8.654;2023-06-14T02:24:28;15.20;59.40
5683;DHT22;2864;49.220;8.654;2023-06-14T02:26:53;15.10;59.40
5683;DHT22;2864;49.220;8.654;2023-06-14T02:29:19;15.20;59.30
5683;DHT22;2864;49.220;8.654;2023-06-14T02:31:44;15.30;59.30
5683;DHT22;2864;49.220;8.654;2023-06-14T02:34:12;15.30;59.30
5683;DHT22;2864;49.220;8.654;2023-06-14T02:36:38;15.30;59.30
5683;DHT22;2864;49.220;8.654;2023-06-14T02:39:08;15.20;59.40
5683;DHT22;2864;49.220;8.654;2023-06-14T02:41:35;15.20;59.50
5683;DHT22;2864;49.220;8.654;2023-06-14T02:44:00;15.20;59.50
5683;DHT22;2864;49.220;8.654;2023-06-14T02:46:26;15.30;59.50
5683;DHT22;2864;49.220;8.654;2023-06-14T02:48:51;15.10;59.40
5683;DHT22;2864;49.220;8.654;2023-06-14T02:51:17;16.30;60.20
5683;DHT22;2864;49.220;8.654;2023-06-14T02:53:42;15.20;59.40
5683;DHT22;2864;49.220;8.654;2023-06-14T02:56:09;15.20;59.40
5683;DHT22;2864;49.220;8.654;2023-06-14T02:58:36;15.10;59.30
5683;DHT22;2864;49.220;8.654;2023-06-14T03:01:02;15.10;59.60
5683;DHT22;2864;49.220;8.654;2023-06-14T03:03:29;15.00;59.50
5683;DHT22;2864;49.220;8.654;2023-06-14T03:05:55;14.90;59.70
5683;DHT22;2864;49.220;8.654;2023-06-14T03:08:20;15.00;59.50
5683;DHT22;2864;49.220;8.654;2023-06-14T03:10:47;15.00;59.50
5683;DHT22;2864;49.220;8.654;2023-06-14T03:13:13;14.90;59.70
5683;DHT22;2864;49.220;8.654;2023-06-14T03:15:39;15.00;59.80
5683;DHT22;2864;49.220;8.654;2023-06-14T03:18:10;15.00;59.90
5683;DHT22;2864;49.220;8.654;2023-06-14T03:20:36;15.00;59.90
5683;DHT22;2864;49.220;8.654;2023-06-14T03:23:02;14.90;60.30
5683;DHT22;2864;49.220;8.654;2023-06-14T03:25:29;15.00;60.10
5683;DHT22;2864;49.220;8.654;2023-06-14T03:27:55;15.00;60.10
5683;DHT22;2864;49.220;8.654;2023-06-14T03:30:21;14.90;60.40
5683;DHT22;2864;49.220;8.654;2023-06-14T03:32:47;14.80;60.80
5683;DHT22;2864;49.220;8.654;2023-06-14T03:35:12;14.80;60.80
5683;DHT22;2864;49.220;8.654;2023-06-14T03:37:45;14.80;60.90
5683;DHT22;2864;49.220;8.654;2023-06-14T03:40:12;14.60;61.30
5683;DHT22;2864;49.220;8.654;2023-06-14T03:42:39;14.50;61.30
5683;DHT22;2864;49.220;8.654;2023-06-14T03:45:05;14.40;61.50
5683;DHT22;2864;49.220;8.654;2023-06-14T03:47:31;14.50;61.80
5683;DHT22;2864;49.220;8.654;2023-06-14T03:49:57;14.50;62.10
5683;DHT22;2864;49.220;8.654;2023-06-14T03:52:23;14.50;62.10
5683;DHT22;2864;49.220;8.654;2023-06-14T03:54:49;14.40;61.90
5683;DHT22;2864;49.220;8.654;2023-06-14T03:57:15;14.40;62.60
5683;DHT22;2864;49.220;8.654;2023-06-14T03:59:40;14.50;61.90
5683;DHT22;2864;49.220;8.654;2023-06-14T04:02:06;14.30;61.90
5683;DHT22;2864;49.220;8.654;2023-06-14T04:04:32;14.50;62.20
5683;DHT22;2864;49.220;8.654;2023-06-14T04:06:58;14.50;62.30
5683;DHT22;2864;49.220;8.654;2023-06-14T04:09:25;14.60;62.20
5683;DHT22;2864;49.220;8.654;2023-06-14T04:11:54;14.70;62.10
5683;DHT22;2864;49.220;8.654;2023-06-14T04:14:21;14.80;62.00
5683;DHT22;2864;49.220;8.654;2023-06-14T04:16:48;14.80;61.80
5683;DHT22;2864;49.220;8.654;2023-06-14T04:19:14;14.80;61.60
5683;DHT22;2864;49.220;8.654;2023-06-14T04:21:39;14.90;61.80
5683;DHT22;2864;49.220;8.654;2023-06-14T04:24:05;14.90;62.30
5683;DHT22;2864;49.220;8.654;2023-06-14T04:26:32;14.90;61.90
5683;DHT22;2864;49.220;8.654;2023-06-14T04:28:59;14.90;62.40
5683;DHT22;2864;49.220;8.654;2023-06-14T04:31:28;15.00;62.00
5683;DHT22;2864;49.220;8.654;2023-06-14T04:33:55;15.10;61.80
5683;DHT22;2864;49.220;8.654;2023-06-14T04:36:21;15.10;61.80
5683;DHT22;2864;49.220;8.654;2023-06-14T04:38:46;15.30;62.20
5683;DHT22;2864;49.220;8.654;2023-06-14T04:41:12;15.30;61.90
5683;DHT22;2864;49.220;8.654;2023-06-14T04:43:38;15.40;61.90
5683;DHT22;2864;49.220;8.654;2023-06-14T04:46:05;15.60;61.30
5683;DHT22;2864;49.220;8.654;2023-06-14T04:48:31;15.70;61.60
5683;DHT22;2864;49.220;8.654;2023-06-14T04:50:57;15.80;61.40
5683;DHT22;2864;49.220;8.654;2023-06-14T04:53:23;15.90;61.30
5683;DHT22;2864;49.220;8.654;2023-06-14T04:55:49;16.00;61.30
5683;DHT22;2864;49.220;8.654;2023-06-14T04:58:15;16.00;61.90
5683;DHT22;2864;49.220;8.654;2023-06-14T05:00:41;18.10;63.90
5683;DHT22;2864;49.220;8.654;2023-06-14T05:03:08;16.20;61.70
5683;DHT22;2864;49.220;8.654;2023-06-14T05:05:34;16.30;61.50
5683;DHT22;2864;49.220;8.654;2023-06-14T05:08:00;16.40;61.20
5683;DHT22;2864;49.220;8.654;2023-06-14T05:10:25;16.50;60.80
5683;DHT22;2864;49.220;8.654;2023-06-14T05:12:51;16.70;60.70
5683;DHT22;2864;49.220;8.654;2023-06-14T05:15:18;16.80;60.90
5683;DHT22;2864;49.220;8.654;2023-06-14T05:17:45;17.00;61.60
5683;DHT22;2864;49.220;8.654;2023-06-14T05:20:13;17.10;60.50
5683;DHT22;2864;49.220;8.654;2023-06-14T05:22:38;17.20;59.90
5683;DHT22;2864;49.220;8.654;2023-06-14T05:25:04;17.30;59.80
5683;DHT22;2864;49.220;8.654;2023-06-14T05:27:30;17.40;59.70
5683;DHT22;2864;49.220;8.654;2023-06-14T05:29:56;17.60;59.50
5683;DHT22;2864;49.220;8.654;2023-06-14T05:32:24;17.70;59.40
5683;DHT22;2864;49.220;8.654;2023-06-14T05:34:49;17.80;59.40
5683;DHT22;2864;49.220;8.654;2023-06-14T05:37:15;17.90;59.00
5683;DHT22;2864;49.220;8.654;2023-06-14T05:39:41;18.00;58.80
5683;DHT22;2864;49.220;8.654;2023-06-14T05:45:07;18.20;58.80
5683;DHT22;2864;49.220;8.654;2023-06-14T05:47:33;18.40;59.10
5683;DHT22;2864;49.220;8.654;2023-06-14T05:49:58;18.40;58.80
5683;DHT22;2864;49.220;8.654;2023-06-14T05:52:24;18.40;58.90
5683;DHT22;2864;49.220;8.654;2023-06-14T05:54:50;18.50;59.10
5683;DHT22;2864;49.220;8.654;2023-06-14T05:57:16;18.60;58.80
5683;DHT22;2864;49.220;8.654;2023-06-14T05:59:41;18.60;58.70
5683;DHT22;2864;49.220;8.654;2023-06-14T06:02:07;18.70;58.70
5683;DHT22;2864;49.220;8.654;2023-06-14T06:04:32;18.70;58.60
5683;DHT22;2864;49.220;8.654;2023-06-14T06:06:58;18.80;58.60
5683;DHT22;2864;49.220;8.654;2023-06-14T06:09:23;18.90;58.60
5683;DHT22;2864;49.220;8.654;2023-06-14T06:11:49;17.80;57.60
5683;DHT22;2864;49.220;8.654;2023-06-14T06:14:14;19.20;58.40
5683;DHT22;2864;49.220;8.654;2023-06-14T06:16:40;19.40;58.20
5683;DHT22;2864;49.220;8.654;2023-06-14T06:19:06;19.40;58.30
5683;DHT22;2864;49.220;8.654;2023-06-14T06:21:31;19.30;58.20
5683;DHT22;2864;49.220;8.654;2023-06-14T06:23:57;19.20;58.30
5683;DHT22;2864;49.220;8.654;2023-06-14T06:26:23;19.30;58.50
5683;DHT22;2864;49.220;8.654;2023-06-14T06:28:48;19.40;58.00
5683;DHT22;2864;49.220;8.654;2023-06-14T06:31:14;19.60;58.10
5683;DHT22;2864;49.220;8.654;2023-06-14T06:33:40;19.70;58.40
5683;DHT22;2864;49.220;8.654;2023-06-14T06:36:06;19.90;58.10
5683;DHT22;2864;49.220;8.654;2023-06-14T06:38:31;20.00;57.50
5683;DHT22;2864;49.220;8.654;2023-06-14T06:40:57;20.00;57.40
5683;DHT22;2864;49.220;8.654;2023-06-14T06:43:22;20.10;57.40
5683;DHT22;2864;49.220;8.654;2023-06-14T06:45:48;20.20;57.30
5683;DHT22;2864;49.220;8.654;2023-06-14T06:48:13;20.20;56.90
5683;DHT22;2864;49.220;8.654;2023-06-14T06:50:39;20.30;57.20
5683;DHT22;2864;49.220;8.654;2023-06-14T06:53:05;20.30;57.20
5683;DHT22;2864;49.220;8.654;2023-06-14T06:55:32;20.30;56.80
5683;DHT22;2864;49.220;8.654;2023-06-14T06:57:57;20.40;57.10
5683;DHT22;2864;49.220;8.654;2023-06-14T07:00:23;20.50;56.80
5683;DHT22;2864;49.220;8.654;2023-06-14T07:02:49;20.50;57.00
5683;DHT22;2864;49.220;8.654;2023-06-14T07:05:14;20.40;56.70
5683;DHT22;2864;49.220;8.654;2023-06-14T07:07:40;20.60;56.80
5683;DHT22;2864;49.220;8.654;2023-06-14T07:10:06;20.80;57.00
5683;DHT22;2864;49.220;8.654;2023-06-14T07:12:32;20.90;56.60
5683;DHT22;2864;49.220;8.654;2023-06-14T07:14:59;21.00;56.30
5683;DHT22;2864;49.220;8.654;2023-06-14T07:17:25;20.90;56.20
5683;DHT22;2864;49.220;8.654;2023-06-14T07:19:51;21.00;56.50
5683;DHT22;2864;49.220;8.654;2023-06-14T07:22:16;21.10;56.30
5683;DHT22;2864;49.220;8.654;2023-06-14T07:24:43;21.10;56.20
5683;DHT22;2864;49.220;8.654;2023-06-14T07:27:08;21.20;55.90
5683;DHT22;2864;49.220;8.654;2023-06-14T07:29:34;21.20;55.70
5683;DHT22;2864;49.220;8.654;2023-06-14T07:32:00;21.20;55.70
5683;DHT22;2864;49.220;8.654;2023-06-14T07:34:25;21.30;56.10
5683;DHT22;2864;49.220;8.654;2023-06-14T07:36:51;21.50;56.20
5683;DHT22;2864;49.220;8.654;2023-06-14T07:39:17;21.70;56.00
5683;DHT22;2864;49.220;8.654;2023-06-14T07:41:42;21.70;55.80
5683;DHT22;2864;49.220;8.654;2023-06-14T07:44:08;21.80;55.60
5683;DHT22;2864;49.220;8.654;2023-06-14T07:46:33;21.80;55.40
5683;DHT22;2864;49.220;8.654;2023-06-14T07:49:00;21.90;56.10
5683;DHT22;2864;49.220;8.654;2023-06-14T07:51:25;22.00;55.60
5683;DHT22;2864;49.220;8.654;2023-06-14T07:53:51;22.10;55.10
5683;DHT22;2864;49.220;8.654;2023-06-14T07:56:16;22.30;55.20
5683;DHT22;2864;49.220;8.654;2023-06-14T07:58:42;22.30;54.60
5683;DHT22;2864;49.220;8.654;2023-06-14T08:01:08;22.10;54.80
5683;DHT22;2864;49.220;8.654;2023-06-14T08:03:34;22.00;54.70
5683;DHT22;2864;49.220;8.654;2023-06-14T08:06:00;22.20;54.60
5683;DHT22;2864;49.220;8.654;2023-06-14T08:08:26;22.40;54.40
5683;DHT22;2864;49.220;8.654;2023-06-14T08:10:55;22.50;54.70
5683;DHT22;2864;49.220;8.654;2023-06-14T08:13:21;22.60;54.60
5683;DHT22;2864;49.220;8.654;2023-06-14T08:15:46;22.70;54.40
5683;DHT22;2864;49.220;8.654;2023-06-14T08:18:12;22.60;54.30
5683;DHT22;2864;49.220;8.654;2023-06-14T08:20:37;22.70;54.60
5683;DHT22;2864;49.220;8.654;2023-06-14T08:23:03;22.90;54.30
5683;DHT22;2864;49.220;8.654;2023-06-14T08:25:30;22.90;54.20
5683;DHT22;2864;49.220;8.654;2023-06-14T08:27:56;23.10;54.60
5683;DHT22;2864;49.220;8.654;2023-06-14T08:30:22;23.20;53.90
5683;DHT22;2864;49.220;8.654;2023-06-14T08:32:47;23.30;54.10
5683;DHT22;2864;49.220;8.654;2023-06-14T08:35:13;23.40;53.90
5683;DHT22;2864;49.220;8.654;2023-06-14T08:37:40;23.40;53.80
5683;DHT22;2864;49.220;8.654;2023-06-14T08:40:18;23.40;54.00
5683;DHT22;2864;49.220;8.654;2023-06-14T08:42:48;23.20;53.80
5683;DHT22;2864;49.220;8.654;2023-06-14T08:45:15;23.30;54.30
5683;DHT22;2864;49.220;8.654;2023-06-14T08:47:41;23.60;53.90
5683;DHT22;2864;49.220;8.654;2023-06-14T08:50:07;23.50;53.50
5683;DHT22;2864;49.220;8.654;2023-06-14T08:52:37;23.50;53.50
5683;DHT22;2864;49.220;8.654;2023-06-14T08:55:10;23.50;53.90
5683;DHT22;2864;49.220;8.654;2023-06-14T08:57:37;23.90;53.70
5683;DHT22;2864;49.220;8.654;2023-06-14T09:00:04;24.00;53.40
5683;DHT22;2864;49.220;8.654;2023-06-14T09:02:37;24.20;53.60
5683;DHT22;2864;49.220;8.654;2023-06-14T09:05:03;24.30;53.10
5683;DHT22;2864;49.220;8.654;2023-06-14T09:07:29;24.30;52.90
5683;DHT22;2864;49.220;8.654;2023-06-14T09:10:14;24.40;53.10
5683;DHT22;2864;49.220;8.654;2023-06-14T09:12:40;24.40;52.60
5683;DHT22;2864;49.220;8.654;2023-06-14T09:15:06;24.30;53.20
5683;DHT22;2864;49.220;8.654;2023-06-14T09:17:37;24.50;53.50
5683;DHT22;2864;49.220;8.654;2023-06-14T09:20:04;24.80;52.80
5683;DHT22;2864;49.220;8.654;2023-06-14T09:22:33;24.80;52.10
5683;DHT22;2864;49.220;8.654;2023-06-14T09:24:59;24.90;52.50
5683;DHT22;2864;49.220;8.654;2023-06-14T09:27:28;25.40;52.40
5683;DHT22;2864;49.220;8.654;2023-06-14T09:29:54;25.50;51.90
5683;DHT22;2864;49.220;8.654;2023-06-14T09:32:21;25.60;52.00
5683;DHT22;2864;49.220;8.654;2023-06-14T09:34:47;25.60;51.90
5683;DHT22;2864;49.220;8.654;2023-06-14T09:37:13;25.70;51.70
5683;DHT22;2864;49.220;8.654;2023-06-14T09:39:53;25.90;51.30
5683;DHT22;2864;49.220;8.654;2023-06-14T09:42:19;25.90;50.70
5683;DHT22;2864;49.220;8.654;2023-06-14T09:44:48;25.70;50.60
5683;DHT22;2864;49.220;8.654;2023-06-14T09:47:17;25.60;50.80
5683;DHT22;2864;49.220;8.654;2023-06-14T09:49:43;25.90;50.50
5683;DHT22;2864;49.220;8.654;2023-06-14T09:52:15;26.00;50.50
5683;DHT22;2864;49.220;8.654;2023-06-14T09:54:42;26.30;50.40
5683;DHT22;2864;49.220;8.654;2023-06-14T09:57:10;26.40;50.40
5683;DHT22;2864;49.220;8.654;2023-06-14T09:59:44;26.40;50.60
5683;DHT22;2864;49.220;8.654;2023-06-14T10:02:18;26.80;50.30
5683;DHT22;2864;49.220;8.654;2023-06-14T10:04:53;26.90;50.90
5683;DHT22;2864;49.220;8.654;2023-06-14T10:07:20;26.90;50.10
5683;DHT22;2864;49.220;8.654;2023-06-14T10:09:47;26.50;50.20
5683;DHT22;2864;49.220;8.654;2023-06-14T10:12:16;26.80;50.50
5683;DHT22;2864;49.220;8.654;2023-06-14T10:14:49;27.10;50.60
5683;DHT22;2864;49.220;8.654;2023-06-14T10:17:48;27.50;50.10
5683;DHT22;2864;49.220;8.654;2023-06-14T10:20:43;27.30;50.40
5683;DHT22;2864;49.220;8.654;2023-06-14T10:23:19;27.50;49.80
5683;DHT22;2864;49.220;8.654;2023-06-14T10:25:50;27.60;50.10
5683;DHT22;2864;49.220;8.654;2023-06-14T10:28:21;28.00;49.30
5683;DHT22;2864;49.220;8.654;2023-06-14T10:31:11;27.80;49.30
5683;DHT22;2864;49.220;8.654;2023-06-14T10:33:49;27.60;49.20
5683;DHT22;2864;49.220;8.654;2023-06-14T10:36:31;28.00;49.20
5683;DHT22;2864;49.220;8.654;2023-06-14T10:39:18;28.60;48.80
5683;DHT22;2864;49.220;8.654;2023-06-14T10:41:55;28.40;48.50
5683;DHT22;2864;49.220;8.654;2023-06-14T10:46:55;27.80;48.60
5683;DHT22;2864;49.220;8.654;2023-06-14T10:49:44;27.60;48.90
5683;DHT22;2864;49.220;8.654;2023-06-14T10:52:20;27.20;48.60
5683;DHT22;2864;49.220;8.654;2023-06-14T10:55:11;26.70;49.00
5683;DHT22;2864;49.220;8.654;2023-06-14T10:57:40;26.60;49.20
5683;DHT22;2864;49.220;8.654;2023-06-14T11:00:07;26.10;48.70
5683;DHT22;2864;49.220;8.654;2023-06-14T11:05:15;26.90;48.80
5683;DHT22;2864;49.220;8.654;2023-06-14T11:08:07;26.90;48.90
5683;DHT22;2864;49.220;8.654;2023-06-14T11:10:40;27.50;48.80
5683;DHT22;2864;49.220;8.654;2023-06-14T11:13:06;27.50;48.30
5683;DHT22;2864;49.220;8.654;2023-06-14T11:15:34;27.70;48.20
5683;DHT22;2864;49.220;8.654;2023-06-14T11:18:01;27.20;48.30
5683;DHT22;2864;49.220;8.654;2023-06-14T11:20:30;27.60;48.30
5683;DHT22;2864;49.220;8.654;2023-06-14T11:22:56;27.90;48.10
5683;DHT22;2864;49.220;8.654;2023-06-14T11:25:22;27.70;47.50
5683;DHT22;2864;49.220;8.654;2023-06-14T11:27:49;27.50;47.60
5683;DHT22;2864;49.220;8.654;2023-06-14T11:30:16;26.80;47.90
5683;DHT22;2864;49.220;8.654;2023-06-14T11:32:42;27.20;48.10
5683;DHT22;2864;49.220;8.654;2023-06-14T11:35:08;27.70;47.60
5683;DHT22;2864;49.220;8.654;2023-06-14T11:37:36;28.40;47.30
5683;DHT22;2864;49.220;8.654;2023-06-14T11:40:03;28.70;46.70
5683;DHT22;2864;49.220;8.654;2023-06-14T11:42:31;28.90;46.90
5683;DHT22;2864;49.220;8.654;2023-06-14T11:44:57;28.70;46.30
5683;DHT22;2864;49.220;8.654;2023-06-14T11:47:22;29.00;46.50
5683;DHT22;2864;49.220;8.654;2023-06-14T11:49:48;29.00;46.10
5683;DHT22;2864;49.220;8.654;2023-06-14T11:52:14;28.90;46.30
5683;DHT22;2864;49.220;8.654;2023-06-14T11:54:40;29.30;46.80
5683;DHT22;2864;49.220;8.654;2023-06-14T11:57:06;29.70;46.30
5683;DHT22;2864;49.220;8.654;2023-06-14T11:59:38;29.90;46.60
5683;DHT22;2864;49.220;8.654;2023-06-14T12:02:05;30.40;46.20
5683;DHT22;2864;49.220;8.654;2023-06-14T12:04:31;30.00;45.80
5683;DHT22;2864;49.220;8.654;2023-06-14T12:06:57;29.60;46.00
5683;DHT22;2864;49.220;8.654;2023-06-14T12:09:23;29.90;46.10
5683;DHT22;2864;49.220;8.654;2023-06-14T12:11:59;30.40;45.80
5683;DHT22;2864;49.220;8.654;2023-06-14T12:14:31;30.50;45.30
5683;DHT22;2864;49.220;8.654;2023-06-14T12:17:06;29.70;45.60
5683;DHT22;2864;49.220;8.654;2023-06-14T12:19:32;29.90;46.20
5683;DHT22;2864;49.220;8.654;2023-06-14T12:21:59;30.30;45.70
5683;DHT22;2864;49.220;8.654;2023-06-14T12:24:29;30.40;45.80
5683;DHT22;2864;49.220;8.654;2023-06-14T12:26:57;30.70;44.70
5683;DHT22;2864;49.220;8.654;2023-06-14T12:29:25;30.40;45.40
5683;DHT22;2864;49.220;8.654;2023-06-14T12:31:50;30.70;44.70
5683;DHT22;2864;49.220;8.654;2023-06-14T12:34:16;30.80;44.50
5683;DHT22;2864;49.220;8.654;2023-06-14T12:36:42;30.10;44.70
5683;DHT22;2864;49.220;8.654;2023-06-14T12:39:10;29.80;45.80
5683;DHT22;2864;49.220;8.654;2023-06-14T12:41:35;29.30;45.60
5683;DHT22;2864;49.220;8.654;2023-06-14T12:44:02;28.80;45.80
5683;DHT22;2864;49.220;8.654;2023-06-14T12:46:30;28.90;45.60
5683;DHT22;2864;49.220;8.654;2023-06-14T12:48:57;29.30;45.20
5683;DHT22;2864;49.220;8.654;2023-06-14T12:51:22;30.80;44.90
5683;DHT22;2864;49.220;8.654;2023-06-14T12:53:49;31.20;44.10
5683;DHT22;2864;49.220;8.654;2023-06-14T12:56:15;32.00;44.10
5683;DHT22;2864;49.220;8.654;2023-06-14T12:58:41;32.60;43.60
5683;DHT22;2864;49.220;8.654;2023-06-14T13:01:07;32.70;43.10
5683;DHT22;2864;49.220;8.654;2023-06-14T13:03:33;33.60;42.90
5683;DHT22;2864;49.220;8.654;2023-06-14T13:06:01;34.10;42.90
5683;DHT22;2864;49.220;8.654;2023-06-14T13:08:27;35.10;42.30
5683;DHT22;2864;49.220;8.654;2023-06-14T13:10:53;36.20;42.10
5683;DHT22;2864;49.220;8.654;2023-06-14T13:13:19;35.10;42.90
5683;DHT22;2864;49.220;8.654;2023-06-14T13:15:45;33.50;42.90
5683;DHT22;2864;49.220;8.654;2023-06-14T13:18:12;31.80;43.40
5683;DHT22;2864;49.220;8.654;2023-06-14T13:20:38;30.90;43.90
5683;DHT22;2864;49.220;8.654;2023-06-14T13:23:04;30.50;44.50
5683;DHT22;2864;49.220;8.654;2023-06-14T13:25:36;30.40;43.80
5683;DHT22;2864;49.220;8.654;2023-06-14T13:28:02;31.00;44.00
5683;DHT22;2864;49.220;8.654;2023-06-14T13:30:27;32.50;43.70
5683;DHT22;2864;49.220;8.654;2023-06-14T13:32:53;34.60;42.80
5683;DHT22;2864;49.220;8.654;2023-06-14T13:35:19;35.40;42.20
5683;DHT22;2864;49.220;8.654;2023-06-14T13:37:45;35.70;41.60
5683;DHT22;2864;49.220;8.654;2023-06-14T13:40:11;33.70;41.90
5683;DHT22;2864;49.220;8.654;2023-06-14T13:42:37;33.10;42.00
5683;DHT22;2864;49.220;8.654;2023-06-14T13:45:03;31.50;43.10
5683;DHT22;2864;49.220;8.654;2023-06-14T13:47:29;33.20;42.90
5683;DHT22;2864;49.220;8.654;2023-06-14T13:49:55;35.40;42.40
5683;DHT22;2864;49.220;8.654;2023-06-14T13:52:21;36.30;41.70
5683;DHT22;2864;49.220;8.654;2023-06-14T13:54:47;34.50;41.90
5683;DHT22;2864;49.220;8.654;2023-06-14T13:57:12;32.60;42.90
5683;DHT22;2864;49.220;8.654;2023-06-14T13:59:39;31.60;43.10
5683;DHT22;2864;49.220;8.654;2023-06-14T14:02:06;30.90;43.60
5683;DHT22;2864;49.220;8.654;2023-06-14T14:04:31;30.10;43.80
5683;DHT22;2864;49.220;8.654;2023-06-14T14:06:57;29.60;44.70
5683;DHT22;2864;49.220;8.654;2023-06-14T14:09:52;30.00;44.50
5683;DHT22;2864;49.220;8.654;2023-06-14T14:12:18;30.70;44.50
5683;DHT22;2864;49.220;8.654;2023-06-14T14:14:44;32.90;44.40
5683;DHT22;2864;49.220;8.654;2023-06-14T14:17:09;33.60;43.90
5683;DHT22;2864;49.220;8.654;2023-06-14T14:19:35;34.40;43.00
5683;DHT22;2864;49.220;8.654;2023-06-14T14:22:01;35.30;43.00
5683;DHT22;2864;49.220;8.654;2023-06-14T14:24:27;36.70;42.20
5683;DHT22;2864;49.220;8.654;2023-06-14T14:26:52;38.40;41.60
5683;DHT22;2864;49.220;8.654;2023-06-14T14:29:19;37.70;41.40
5683;DHT22;2864;49.220;8.654;2023-06-14T14:31:45;37.10;41.50
5683;DHT22;2864;49.220;8.654;2023-06-14T14:34:10;34.70;42.10
5683;DHT22;2864;49.220;8.654;2023-06-14T14:36:36;32.60;42.90
5683;DHT22;2864;49.220;8.654;2023-06-14T14:39:04;31.70;43.80
5683;DHT22;2864;49.220;8.654;2023-06-14T14:41:29;30.70;44.30
5683;DHT22;2864;49.220;8.654;2023-06-14T14:43:55;30.00;44.50
5683;DHT22;2864;49.220;8.654;2023-06-14T14:46:20;29.90;44.60
5683;DHT22;2864;49.220;8.654;2023-06-14T14:48:46;31.30;43.90
5683;DHT22;2864;49.220;8.654;2023-06-14T14:51:12;34.90;43.50
5683;DHT22;2864;49.220;8.654;2023-06-14T14:53:37;35.60;42.30
5683;DHT22;2864;49.220;8.654;2023-06-14T14:56:03;37.00;41.40
5683;DHT22;2864;49.220;8.654;2023-06-14T14:58:28;37.30;41.30
5683;DHT22;2864;49.220;8.654;2023-06-14T15:00:54;38.00;41.20
5683;DHT22;2864;49.220;8.654;2023-06-14T15:03:20;38.60;41.00
5683;DHT22;2864;49.220;8.654;2023-06-14T15:05:46;38.40;41.20
5683;DHT22;2864;49.220;8.654;2023-06-14T15:08:12;39.90;40.70
5683;DHT22;2864;49.220;8.654;2023-06-14T15:10:38;37.10;41.10
5683;DHT22;2864;49.220;8.654;2023-06-14T15:13:07;34.90;41.80
5683;DHT22;2864;49.220;8.654;2023-06-14T15:15:33;33.00;42.50
5683;DHT22;2864;49.220;8.654;2023-06-14T15:17:59;31.30;43.90
5683;DHT22;2864;49.220;8.654;2023-06-14T15:20:25;30.70;43.80
5683;DHT22;2864;49.220;8.654;2023-06-14T15:22:51;30.10;44.30
5683;DHT22;2864;49.220;8.654;2023-06-14T15:25:18;30.10;44.40
5683;DHT22;2864;49.220;8.654;2023-06-14T15:27:44;32.00;43.80
5683;DHT22;2864;49.220;8.654;2023-06-14T15:30:10;32.70;43.30
5683;DHT22;2864;49.220;8.654;2023-06-14T15:32:36;32.60;43.30
5683;DHT22;2864;49.220;8.654;2023-06-14T15:35:01;32.10;43.40
5683;DHT22;2864;49.220;8.654;2023-06-14T15:37:27;32.00;44.10
5683;DHT22;2864;49.220;8.654;2023-06-14T15:39:52;33.90;43.20
5683;DHT22;2864;49.220;8.654;2023-06-14T15:42:18;35.50;42.20
5683;DHT22;2864;49.220;8.654;2023-06-14T15:44:43;35.40;42.00
5683;DHT22;2864;49.220;8.654;2023-06-14T15:47:09;35.00;42.30
5683;DHT22;2864;49.220;8.654;2023-06-14T15:49:34;35.80;42.50
5683;DHT22;2864;49.220;8.654;2023-06-14T15:52:00;36.60;41.80
5683;DHT22;2864;49.220;8.654;2023-06-14T15:54:27;37.80;41.40
5683;DHT22;2864;49.220;8.654;2023-06-14T15:56:53;38.70;40.90
5683;DHT22;2864;49.220;8.654;2023-06-14T15:59:19;38.90;40.60
5683;DHT22;2864;49.220;8.654;2023-06-14T16:01:44;39.00;40.60
5683;DHT22;2864;49.220;8.654;2023-06-14T16:04:10;38.40;40.90
5683;DHT22;2864;49.220;8.654;2023-06-14T16:06:35;38.70;40.40
5683;DHT22;2864;49.220;8.654;2023-06-14T16:09:02;37.40;40.40
5683;DHT22;2864;49.220;8.654;2023-06-14T16:11:28;36.70;40.80
5683;DHT22;2864;49.220;8.654;2023-06-14T16:13:54;37.80;40.60
5683;DHT22;2864;49.220;8.654;2023-06-14T16:16:21;37.20;40.90
5683;DHT22;2864;49.220;8.654;2023-06-14T16:18:48;38.10;40.60